createdAt,value
2022-08-28T00:00:55.209Z,12.65
2022-08-28T00:01:57.094Z,13.18
2022-08-28T00:02:58.938Z,12.98
2022-08-28T00:04:01.079Z,12.20
2022-08-28T00:05:02.729Z,12.75
2022-08-28T00:06:04.815Z,12.18
2022-08-28T00:07:06.948Z,13.65
2022-08-28T00:08:10.889Z,12.43
2022-08-28T00:09:12.724Z,12.82
2022-08-28T00:10:16.867Z,10.77
2022-08-28T00:11:20.051Z,13.57
2022-08-28T00:12:21.767Z,11.80
2022-08-28T00:13:25.475Z,12.05
2022-08-28T00:14:27.272Z,11.57
2022-08-28T00:15:34.984Z,13.00
2022-08-28T00:16:36.924Z,10.30
2022-08-28T00:17:38.586Z,13.38
2022-08-28T00:18:40.507Z,12.73
2022-08-28T00:19:41.993Z,12.02
2022-08-28T00:20:43.793Z,14.93
2022-08-28T00:21:45.674Z,12.45
2022-08-28T00:22:48.543Z,12.73
2022-08-28T00:24:51.453Z,13.25
2022-08-28T00:25:56.925Z,13.48
2022-08-28T00:27:17.296Z,12.77
2022-08-28T00:28:23.705Z,13.27
2022-08-28T00:29:26.012Z,12.88
2022-08-28T00:30:31.790Z,14.88
2022-08-28T00:31:34.996Z,13.73
2022-08-28T00:32:36.638Z,10.68
2022-08-28T00:33:38.081Z,12.70
2022-08-28T00:34:39.712Z,15.75
2022-08-28T00:35:41.979Z,12.30
2022-08-28T00:36:43.799Z,12.90
2022-08-28T00:37:46.481Z,14.90
2022-08-28T00:38:50.492Z,14.05
2022-08-28T00:39:52.065Z,13.85
2022-08-28T00:40:56.900Z,14.95
2022-08-28T00:42:00.177Z,15.98
2022-08-28T00:43:04.876Z,14.68
2022-08-28T00:44:14.099Z,12.07
2022-08-28T00:45:16.929Z,13.45
2022-08-28T00:47:25.181Z,14.05
2022-08-28T00:48:27.343Z,12.32
2022-08-28T00:49:32.174Z,12.98
2022-08-28T00:50:56.877Z,12.77
2022-08-28T00:52:06.156Z,14.43
2022-08-28T00:53:07.688Z,14.90
2022-08-28T00:54:09.648Z,11.23
2022-08-28T00:55:14.318Z,12.70
2022-08-28T00:56:19.048Z,12.60
2022-08-28T00:57:37.307Z,12.57
2022-08-28T00:58:40.260Z,12.55
2022-08-28T00:59:41.974Z,13.05
2022-08-28T01:00:43.754Z,13.60
2022-08-28T01:01:48.114Z,13.32
2022-08-28T01:02:49.651Z,12.68
2022-08-28T01:03:51.201Z,14.43
2022-08-28T01:04:52.813Z,15.20
2022-08-28T01:05:54.393Z,13.00
2022-08-28T01:06:57.928Z,12.50
2022-08-28T01:08:01.233Z,14.68
2022-08-28T01:09:04.408Z,14.65
2022-08-28T01:10:11.262Z,15.35
2022-08-28T01:11:14.361Z,14.55
2022-08-28T01:12:21.185Z,14.80
2022-08-28T01:13:24.222Z,13.77
2022-08-28T01:14:26.957Z,13.70
2022-08-28T01:15:32.854Z,14.88
2022-08-28T01:16:35.205Z,14.38
2022-08-28T01:17:37.489Z,12.25
2022-08-28T01:18:46.169Z,14.45
2022-08-28T01:19:56.547Z,11.23
2022-08-28T01:21:16.851Z,13.20
2022-08-28T01:22:26.109Z,12.15
2022-08-28T01:24:07.502Z,13.68
2022-08-28T01:25:13.343Z,12.68
2022-08-28T01:26:14.980Z,12.90
2022-08-28T01:27:17.144Z,11.60
2022-08-28T01:28:18.751Z,12.45
2022-08-28T01:29:20.886Z,11.23
2022-08-28T01:30:24.217Z,14.25
2022-08-28T01:31:28.666Z,12.18
2022-08-28T01:32:41.108Z,13.68
2022-08-28T01:33:43.806Z,12.30
2022-08-28T01:34:45.239Z,12.68
2022-08-28T01:35:47.945Z,13.32
2022-08-28T01:36:49.491Z,13.55
2022-08-28T01:37:51.820Z,12.98
2022-08-28T01:39:01.352Z,13.20
2022-08-28T01:40:05.422Z,12.75
2022-08-28T01:41:07.357Z,10.90
2022-08-28T01:42:09.683Z,12.18
2022-08-28T01:43:11.865Z,12.15
2022-08-28T01:44:15.296Z,12.52
2022-08-28T01:45:20.954Z,13.02
2022-08-28T01:46:22.731Z,11.80
2022-08-28T01:47:24.540Z,11.52
2022-08-28T01:48:26.583Z,14.25
2022-08-28T01:49:29.522Z,11.70
2022-08-28T01:50:32.026Z,11.15
2022-08-28T01:51:35.215Z,11.43
2022-08-28T01:52:39.879Z,13.50
2022-08-28T01:53:42.083Z,11.88
2022-08-28T01:54:46.716Z,12.05
2022-08-28T01:55:48.171Z,11.90
2022-08-28T01:56:49.707Z,11.93
2022-08-28T01:57:54.261Z,13.38
2022-08-28T01:58:55.994Z,11.90
2022-08-28T01:59:57.515Z,13.38
2022-08-28T02:00:59.057Z,10.75
2022-08-28T02:02:01.539Z,14.05
2022-08-28T02:03:03.897Z,10.20
2022-08-28T02:04:06.008Z,11.05
2022-08-28T02:05:09.322Z,12.63
2022-08-28T02:06:12.105Z,13.20
2022-08-28T02:08:16.287Z,13.20
2022-08-28T02:09:17.894Z,12.57
2022-08-28T02:10:24.615Z,12.55
2022-08-28T02:11:29.339Z,12.27
2022-08-28T02:12:31.382Z,12.65
2022-08-28T02:13:35.103Z,11.70
2022-08-28T02:14:36.742Z,12.68
2022-08-28T02:15:39.739Z,11.95
2022-08-28T02:16:41.262Z,12.23
2022-08-28T02:17:43.071Z,12.55
2022-08-28T02:18:45.018Z,13.15
2022-08-28T02:19:46.567Z,13.40
2022-08-28T02:20:48.107Z,12.85
2022-08-28T02:21:49.647Z,12.52
2022-08-28T02:22:51.847Z,13.98
2022-08-28T02:23:53.595Z,16.35
2022-08-28T02:24:55.136Z,13.23
2022-08-28T02:25:56.638Z,12.52
2022-08-28T02:26:58.495Z,12.68
2022-08-28T02:28:00.245Z,12.98
2022-08-28T02:29:01.745Z,12.07
2022-08-28T02:30:05.582Z,12.52
2022-08-28T02:31:09.410Z,11.77
2022-08-28T02:32:11.686Z,10.13
2022-08-28T02:33:13.290Z,12.43
2022-08-28T02:34:14.935Z,13.52
2022-08-28T02:35:18.913Z,15.20
2022-08-28T02:36:20.597Z,14.40
2022-08-28T02:37:24.671Z,12.02
2022-08-28T02:38:26.819Z,11.75
2022-08-28T02:39:28.579Z,14.60
2022-08-28T02:40:30.178Z,14.68
2022-08-28T02:41:32.383Z,15.05
2022-08-28T02:42:34.278Z,12.63
2022-08-28T02:43:35.985Z,14.07
2022-08-28T02:44:37.571Z,10.98
2022-08-28T02:45:39.141Z,14.07
2022-08-28T02:46:40.968Z,12.45
2022-08-28T02:47:44.341Z,11.40
2022-08-28T02:48:45.872Z,13.63
2022-08-28T02:49:47.399Z,12.05
2022-08-28T02:50:48.904Z,12.38
2022-08-28T02:51:51.635Z,13.75
2022-08-28T02:52:53.694Z,10.93
2022-08-28T02:53:55.247Z,12.27
2022-08-28T02:54:56.691Z,11.27
2022-08-28T02:56:00.573Z,14.93
2022-08-28T02:57:02.524Z,13.88
2022-08-28T02:58:04.090Z,13.05
2022-08-28T02:59:06.408Z,11.25
2022-08-28T03:00:12.823Z,12.95
2022-08-28T03:01:15.912Z,13.07
2022-08-28T03:02:17.536Z,12.40
2022-08-28T03:03:19.441Z,13.05
2022-08-28T03:04:20.911Z,13.13
2022-08-28T03:05:24.269Z,11.35
2022-08-28T03:06:26.071Z,12.55
2022-08-28T03:07:29.331Z,12.65
2022-08-28T03:08:32.317Z,12.95
2022-08-28T03:09:34.122Z,12.30
2022-08-28T03:10:35.723Z,13.63
2022-08-28T03:11:37.260Z,12.88
2022-08-28T03:12:39.184Z,13.23
2022-08-28T03:13:42.021Z,11.57
2022-08-28T03:15:47.078Z,14.95
2022-08-28T03:16:53.573Z,11.20
2022-08-28T03:17:55.309Z,13.32
2022-08-28T03:18:57.444Z,12.68
2022-08-28T03:19:59.116Z,13.65
2022-08-28T03:21:01.394Z,12.15
2022-08-28T03:22:02.948Z,13.38
2022-08-28T03:23:23.090Z,12.70
2022-08-28T03:24:25.084Z,13.30
2022-08-28T03:25:28.178Z,11.60
2022-08-28T03:26:30.377Z,11.02
2022-08-28T03:27:31.902Z,10.95
2022-08-28T03:28:38.304Z,14.20
2022-08-28T03:29:39.827Z,13.13
2022-08-28T03:30:41.365Z,11.48
2022-08-28T03:31:43.295Z,12.52
2022-08-28T03:32:44.897Z,16.83
2022-08-28T03:33:47.382Z,12.20
2022-08-28T03:34:49.546Z,14.00
2022-08-28T03:35:51.059Z,11.45
2022-08-28T03:36:52.986Z,13.95
2022-08-28T03:37:54.584Z,14.48
2022-08-28T03:38:59.283Z,16.00
2022-08-28T03:40:00.857Z,12.32
2022-08-28T03:41:02.495Z,13.18
2022-08-28T03:42:04.861Z,12.65
2022-08-28T03:44:09.247Z,13.60
2022-08-28T03:45:11.650Z,13.90
2022-08-28T03:46:16.701Z,14.98
2022-08-28T03:47:18.225Z,13.02
2022-08-28T03:48:24.390Z,11.88
2022-08-28T03:49:26.027Z,11.70
2022-08-28T03:50:29.765Z,12.85
2022-08-28T03:51:34.110Z,11.80
2022-08-28T03:52:35.617Z,11.25
2022-08-28T03:53:38.015Z,10.07
2022-08-28T03:54:39.534Z,12.57
2022-08-28T03:55:42.743Z,13.10
2022-08-28T03:56:44.554Z,12.23
2022-08-28T03:57:46.451Z,12.82
2022-08-28T03:58:54.294Z,12.48
2022-08-28T03:59:56.045Z,14.38
2022-08-28T04:00:57.612Z,13.63
2022-08-28T04:01:59.490Z,14.38
2022-08-28T04:03:01.085Z,10.65
2022-08-28T04:04:02.886Z,14.02
2022-08-28T04:05:05.598Z,11.80
2022-08-28T04:06:07.754Z,11.63
2022-08-28T04:07:09.218Z,12.60
2022-08-28T04:08:15.975Z,12.35
2022-08-28T04:09:17.455Z,10.70
2022-08-28T04:10:19.975Z,11.77
2022-08-28T04:11:22.515Z,11.73
2022-08-28T04:12:24.006Z,13.63
2022-08-28T04:13:25.552Z,12.35
2022-08-28T04:14:27.392Z,12.60
2022-08-28T04:15:29.197Z,12.90
2022-08-28T04:16:31.840Z,13.45
2022-08-28T04:17:33.394Z,12.50
2022-08-28T04:18:35.730Z,11.95
2022-08-28T04:19:38.088Z,11.68
2022-08-28T04:20:39.597Z,12.60
2022-08-28T04:21:41.421Z,12.98
2022-08-28T04:22:43.387Z,14.35
2022-08-28T04:23:47.631Z,13.10
2022-08-28T04:24:49.123Z,13.68
2022-08-28T04:25:50.628Z,12.32
2022-08-28T04:26:52.588Z,12.25
2022-08-28T04:27:54.105Z,13.40
2022-08-28T04:28:56.057Z,13.02
2022-08-28T04:29:57.817Z,12.70
2022-08-28T04:30:59.694Z,11.90
2022-08-28T04:32:02.478Z,11.60
2022-08-28T04:33:06.161Z,12.13
2022-08-28T04:34:09.270Z,13.70
2022-08-28T04:35:12.146Z,11.02
2022-08-28T04:37:19.025Z,12.52
2022-08-28T04:38:21.449Z,11.85
2022-08-28T04:39:22.926Z,10.90
2022-08-28T04:40:24.564Z,11.70
2022-08-28T04:41:26.939Z,12.48
2022-08-28T04:42:28.395Z,11.02
2022-08-28T04:43:29.897Z,11.38
2022-08-28T04:44:32.251Z,11.65
2022-08-28T04:45:38.216Z,11.30
2022-08-28T04:46:40.088Z,11.40
2022-08-28T04:47:41.632Z,14.07
2022-08-28T04:48:43.403Z,11.50
2022-08-28T04:49:44.970Z,12.38
2022-08-28T04:50:49.482Z,10.10
2022-08-28T04:51:51.282Z,12.15
2022-08-28T04:52:52.751Z,12.15
2022-08-28T04:53:54.315Z,13.65
2022-08-28T04:54:55.895Z,15.02
2022-08-28T04:55:59.423Z,12.50
2022-08-28T04:57:01.574Z,12.13
2022-08-28T04:58:03.130Z,11.43
2022-08-28T04:59:04.693Z,12.13
2022-08-28T05:00:07.657Z,13.52
2022-08-28T05:01:13.158Z,10.65
2022-08-28T05:02:14.846Z,12.50
2022-08-28T05:03:17.712Z,11.13
2022-08-28T05:05:21.288Z,11.32
2022-08-28T05:06:27.229Z,12.55
2022-08-28T05:07:29.767Z,13.23
2022-08-28T05:08:31.902Z,12.18
2022-08-28T05:09:34.907Z,12.88
2022-08-28T05:10:36.554Z,9.80
2022-08-28T05:11:38.120Z,10.75
2022-08-28T05:12:39.570Z,11.30
2022-08-28T05:13:41.664Z,16.13
2022-08-28T05:14:43.432Z,12.27
2022-08-28T05:15:48.153Z,11.85
2022-08-28T05:16:53.029Z,12.55
2022-08-28T05:17:55.058Z,12.27
2022-08-28T05:19:00.271Z,13.35
2022-08-28T05:20:02.208Z,11.82
2022-08-28T05:21:04.821Z,13.50
2022-08-28T05:22:06.320Z,10.70
2022-08-28T05:23:09.393Z,14.25
2022-08-28T05:24:11.571Z,11.52
2022-08-28T05:25:14.939Z,13.20
2022-08-28T05:26:18.466Z,11.35
2022-08-28T05:27:20.109Z,12.57
2022-08-28T05:28:24.448Z,10.73
2022-08-28T05:29:25.943Z,12.88
2022-08-28T05:30:27.531Z,11.70
2022-08-28T05:31:32.145Z,18.15
2022-08-28T05:32:34.357Z,14.35
2022-08-28T05:33:35.886Z,15.05
2022-08-28T05:34:37.347Z,18.05
2022-08-28T05:35:42.184Z,21.00
2022-08-28T05:36:43.901Z,18.05
2022-08-28T05:37:45.536Z,17.35
2022-08-28T05:38:47.010Z,16.20
2022-08-28T05:39:48.728Z,13.75
2022-08-28T05:40:50.239Z,12.55
2022-08-28T05:41:51.909Z,12.85
2022-08-28T05:42:53.453Z,12.93
2022-08-28T05:43:55.104Z,10.77
2022-08-28T05:44:58.838Z,11.27
2022-08-28T05:46:03.652Z,12.35
2022-08-28T05:47:07.474Z,16.50
2022-08-28T05:48:09.679Z,13.32
2022-08-28T05:49:13.136Z,15.10
2022-08-28T05:50:15.484Z,11.70
2022-08-28T05:51:22.372Z,14.80
2022-08-28T05:52:24.644Z,15.00
2022-08-28T05:53:26.161Z,16.15
2022-08-28T05:54:29.167Z,13.23
2022-08-28T05:55:30.912Z,13.13
2022-08-28T05:56:38.885Z,13.57
2022-08-28T05:57:41.124Z,10.50
2022-08-28T05:58:42.598Z,10.75
2022-08-28T05:59:45.378Z,11.77
2022-08-28T06:01:50.007Z,12.00
2022-08-28T06:03:59.732Z,10.90
2022-08-28T06:05:01.967Z,10.85
2022-08-28T06:06:05.187Z,11.05
2022-08-28T06:07:06.666Z,12.38
2022-08-28T06:08:08.265Z,11.07
2022-08-28T06:09:14.390Z,11.38
2022-08-28T06:10:15.959Z,13.23
2022-08-28T06:11:22.307Z,11.25
2022-08-28T06:12:26.009Z,12.82
2022-08-28T06:13:28.491Z,11.60
2022-08-28T06:14:31.262Z,12.60
2022-08-28T06:15:33.149Z,11.10
2022-08-28T06:16:38.295Z,13.32
2022-08-28T06:17:40.318Z,13.07
2022-08-28T06:18:42.051Z,10.95
2022-08-28T06:19:43.574Z,10.40
2022-08-28T06:20:46.963Z,11.05
2022-08-28T06:21:51.880Z,9.98
2022-08-28T06:22:53.532Z,12.95
2022-08-28T06:23:55.375Z,12.90
2022-08-28T06:24:56.872Z,11.80
2022-08-28T06:25:59.456Z,12.60
2022-08-28T06:27:00.934Z,12.45
2022-08-28T06:28:02.614Z,11.93
2022-08-28T06:29:07.979Z,12.05
2022-08-28T06:30:10.236Z,12.30
2022-08-28T06:31:23.610Z,12.43
2022-08-28T06:33:28.450Z,9.30
2022-08-28T06:34:30.460Z,11.88
2022-08-28T06:35:32.138Z,10.75
2022-08-28T06:36:36.717Z,13.82
2022-08-28T06:37:38.199Z,12.35
2022-08-28T06:38:39.786Z,10.55
2022-08-28T06:39:41.399Z,10.23
2022-08-28T06:40:46.326Z,11.32
2022-08-28T06:41:47.772Z,11.82
2022-08-28T06:42:49.358Z,11.85
2022-08-28T06:43:51.145Z,10.70
2022-08-28T06:44:52.605Z,11.13
2022-08-28T06:45:56.415Z,13.10
2022-08-28T06:46:59.024Z,10.55
2022-08-28T06:48:00.547Z,9.57
2022-08-28T06:49:04.110Z,13.70
2022-08-28T06:50:06.193Z,12.05
2022-08-28T06:51:10.038Z,11.10
2022-08-28T06:52:11.513Z,11.57
2022-08-28T06:53:15.248Z,11.23
2022-08-28T06:54:22.378Z,11.35
2022-08-28T06:55:25.588Z,10.32
2022-08-28T06:56:27.578Z,9.95
2022-08-28T06:57:29.049Z,11.20
2022-08-28T06:58:31.179Z,10.45
2022-08-28T06:59:32.815Z,10.90
2022-08-28T07:00:36.259Z,9.10
2022-08-28T07:01:38.088Z,11.73
2022-08-28T07:02:39.683Z,12.30
2022-08-28T07:03:42.535Z,10.38
2022-08-28T07:04:45.876Z,8.60
2022-08-28T07:05:47.317Z,11.30
2022-08-28T07:06:54.069Z,17.90
2022-08-28T07:07:56.180Z,15.98
2022-08-28T07:08:57.638Z,14.30
2022-08-28T07:09:59.108Z,17.02
2022-08-28T07:11:09.760Z,19.58
2022-08-28T07:12:15.329Z,33.58
2022-08-28T07:13:16.775Z,21.95
2022-08-28T07:14:18.361Z,13.25
2022-08-28T07:15:19.979Z,11.77
2022-08-28T07:16:24.651Z,11.23
2022-08-28T07:17:26.164Z,11.07
2022-08-28T07:18:27.716Z,11.30
2022-08-28T07:19:29.222Z,10.40
2022-08-28T07:20:30.667Z,9.95
2022-08-28T07:21:38.205Z,10.27
2022-08-28T07:22:43.781Z,9.55
2022-08-28T07:23:46.050Z,10.88
2022-08-28T07:24:47.581Z,10.75
2022-08-28T07:25:49.029Z,11.07
2022-08-28T07:26:50.903Z,8.68
2022-08-28T07:27:52.610Z,11.20
2022-08-28T07:29:10.465Z,12.57
2022-08-28T07:30:13.349Z,12.10
2022-08-28T07:31:21.052Z,10.20
2022-08-28T07:32:22.759Z,10.32
2022-08-28T07:33:24.657Z,10.07
2022-08-28T07:34:26.988Z,9.23
2022-08-28T07:36:30.705Z,10.77
2022-08-28T07:37:32.148Z,9.50
2022-08-28T07:38:35.823Z,10.70
2022-08-28T07:39:37.259Z,10.48
2022-08-28T07:40:38.869Z,10.98
2022-08-28T07:41:43.160Z,9.02
2022-08-28T07:43:03.331Z,10.45
2022-08-28T07:44:23.687Z,9.95
2022-08-28T07:45:26.261Z,10.55
2022-08-28T07:46:29.211Z,11.90
2022-08-28T07:47:31.623Z,11.73
2022-08-28T07:48:40.367Z,11.18
2022-08-28T07:49:41.918Z,11.52
2022-08-28T07:50:43.358Z,9.88
2022-08-28T07:51:46.725Z,10.18
2022-08-28T07:52:48.558Z,10.52
2022-08-28T07:53:50.776Z,8.38
2022-08-28T07:54:52.620Z,9.50
2022-08-28T07:55:54.082Z,9.65
2022-08-28T07:56:55.583Z,10.32
2022-08-28T07:57:57.079Z,10.90
2022-08-28T07:59:01.025Z,12.73
2022-08-28T08:00:02.517Z,11.23
2022-08-28T08:01:04.232Z,9.93
2022-08-28T08:02:07.137Z,9.65
2022-08-28T08:04:12.799Z,11.32
2022-08-28T08:05:14.471Z,9.98
2022-08-28T08:06:16.237Z,12.77
2022-08-28T08:07:18.128Z,11.02
2022-08-28T08:08:19.859Z,9.35
2022-08-28T08:09:22.219Z,10.07
2022-08-28T08:10:24.037Z,9.30
2022-08-28T08:11:27.016Z,11.10
2022-08-28T08:12:35.009Z,11.45
2022-08-28T08:13:39.253Z,11.43
2022-08-28T08:15:43.271Z,9.63
2022-08-28T08:16:46.861Z,8.45
2022-08-28T08:17:48.486Z,10.02
2022-08-28T08:18:51.105Z,11.15
2022-08-28T08:19:52.591Z,11.38
2022-08-28T08:20:54.131Z,10.98
2022-08-28T08:21:56.998Z,11.73
2022-08-28T08:23:59.864Z,14.80
2022-08-28T08:25:04.020Z,11.35
2022-08-28T08:26:08.439Z,10.00
2022-08-28T08:27:10.888Z,10.57
2022-08-28T08:28:12.403Z,10.48
2022-08-28T08:29:15.093Z,10.90
2022-08-28T08:30:16.632Z,9.27
2022-08-28T08:31:24.653Z,9.10
2022-08-28T08:32:27.120Z,10.90
2022-08-28T08:33:28.573Z,11.35
2022-08-28T08:34:30.649Z,9.77
2022-08-28T08:35:32.103Z,10.65
2022-08-28T08:36:35.885Z,10.02
2022-08-28T08:37:37.743Z,9.23
2022-08-28T08:38:39.280Z,10.35
2022-08-28T08:39:42.448Z,10.32
2022-08-28T08:40:44.252Z,9.80
2022-08-28T08:41:49.847Z,8.32
2022-08-28T08:42:57.050Z,10.32
2022-08-28T08:44:32.505Z,9.00
2022-08-28T08:45:36.388Z,8.73
2022-08-28T08:46:49.210Z,11.82
2022-08-28T08:47:54.085Z,9.05
2022-08-28T08:48:57.657Z,8.27
2022-08-28T08:50:02.618Z,11.63
2022-08-28T08:51:20.570Z,11.45
2022-08-28T08:52:46.745Z,9.30
2022-08-28T08:54:04.075Z,8.43
2022-08-28T08:55:23.458Z,8.98
2022-08-28T08:56:25.063Z,10.63
2022-08-28T08:57:37.713Z,9.45
2022-08-28T08:58:47.827Z,9.43
2022-08-28T08:59:50.787Z,10.93
2022-08-28T09:01:23.586Z,10.27
2022-08-28T09:02:32.554Z,8.25
2022-08-28T09:05:06.630Z,11.32
2022-08-28T09:06:21.346Z,30.45
2022-08-28T09:07:30.156Z,21.73
2022-08-28T09:08:39.584Z,18.38
2022-08-28T09:09:44.639Z,11.32
2022-08-28T09:10:55.072Z,12.52
2022-08-28T09:12:00.923Z,9.15
2022-08-28T09:13:32.174Z,8.70
2022-08-28T09:14:38.027Z,8.73
2022-08-28T09:15:42.652Z,7.45
2022-08-28T09:16:48.247Z,8.30
2022-08-28T09:17:54.909Z,8.23
2022-08-28T09:18:59.662Z,8.65
2022-08-28T09:20:01.273Z,8.20
2022-08-28T09:21:03.122Z,8.57
2022-08-28T09:22:05.098Z,10.18
2022-08-28T09:23:12.796Z,9.18
2022-08-28T09:24:32.333Z,8.68
2022-08-28T09:26:01.755Z,7.80
2022-08-28T09:27:12.311Z,12.00
2022-08-28T09:28:21.893Z,7.28
2022-08-28T09:29:33.870Z,9.30
2022-08-28T09:30:37.520Z,12.00
2022-08-28T09:31:41.221Z,9.13
2022-08-28T09:32:56.308Z,9.48
2022-08-28T09:34:18.177Z,10.98
2022-08-28T09:35:28.492Z,9.20
2022-08-28T09:36:37.886Z,10.65
2022-08-28T09:37:41.436Z,8.57
2022-08-28T09:38:43.482Z,9.38
2022-08-28T09:39:48.787Z,9.05
2022-08-28T09:41:25.452Z,8.27
2022-08-28T09:42:45.559Z,9.15
2022-08-28T09:43:47.222Z,10.43
2022-08-28T09:44:51.921Z,9.40
2022-08-28T09:46:08.011Z,8.75
2022-08-28T09:47:09.490Z,8.18
2022-08-28T09:48:24.415Z,9.05
2022-08-28T09:49:30.459Z,8.70
2022-08-28T09:50:37.730Z,8.63
2022-08-28T09:51:40.055Z,10.73
2022-08-28T09:52:41.779Z,8.68
2022-08-28T09:53:59.746Z,9.35
2022-08-28T09:55:01.445Z,7.45
2022-08-28T09:56:05.738Z,7.32
2022-08-28T09:57:08.060Z,6.75
2022-08-28T09:58:09.901Z,7.97
2022-08-28T09:59:16.280Z,7.28
2022-08-28T10:00:17.974Z,9.35
2022-08-28T10:01:54.931Z,6.93
2022-08-28T10:03:14.530Z,8.77
2022-08-28T10:04:17.125Z,7.63
2022-08-28T10:05:29.335Z,6.80
2022-08-28T10:06:35.671Z,7.93
2022-08-28T10:07:52.304Z,8.27
2022-08-28T10:09:11.892Z,9.00
2022-08-28T10:10:17.331Z,12.63
2022-08-28T10:11:36.716Z,14.57
2022-08-28T10:12:59.566Z,8.73
2022-08-28T10:14:14.339Z,8.77
2022-08-28T10:15:46.529Z,8.25
2022-08-28T10:16:55.606Z,8.38
2022-08-28T10:18:12.523Z,8.38
2022-08-28T10:19:47.313Z,10.70
2022-08-28T10:21:10.824Z,9.93
2022-08-28T10:22:37.094Z,9.57
2022-08-28T10:23:58.638Z,10.57
2022-08-28T10:25:05.080Z,9.57
2022-08-28T10:26:21.917Z,6.60
2022-08-28T10:27:39.103Z,8.27
2022-08-28T10:28:58.246Z,9.23
2022-08-28T10:30:13.465Z,7.97
2022-08-28T10:31:15.493Z,8.85
2022-08-28T10:32:54.788Z,7.82
2022-08-28T10:34:11.231Z,8.63
2022-08-28T10:35:23.907Z,8.20
2022-08-28T10:36:34.701Z,7.35
2022-08-28T10:38:06.148Z,9.15
2022-08-28T10:39:27.260Z,8.60
2022-08-28T10:40:34.694Z,7.85
2022-08-28T10:41:41.006Z,8.52
2022-08-28T10:42:49.447Z,9.38
2022-08-28T10:43:54.110Z,10.43
2022-08-28T10:45:01.155Z,9.50
2022-08-28T10:46:35.391Z,8.48
2022-08-28T10:47:42.894Z,7.47
2022-08-28T10:48:53.690Z,7.20
2022-08-28T10:50:01.979Z,7.38
2022-08-28T10:51:10.999Z,9.32
2022-08-28T10:52:22.051Z,9.43
2022-08-28T10:53:31.050Z,10.13
2022-08-28T10:54:38.590Z,7.47
2022-08-28T10:55:52.562Z,7.50
2022-08-28T10:57:00.826Z,9.82
2022-08-28T10:58:25.139Z,11.55
2022-08-28T10:59:32.364Z,11.15
2022-08-28T11:00:34.975Z,11.20
2022-08-28T11:01:40.030Z,8.88
2022-08-28T11:02:45.932Z,8.63
2022-08-28T11:03:51.340Z,8.55
2022-08-28T11:04:58.489Z,8.20
2022-08-28T11:06:08.347Z,7.55
2022-08-28T11:07:14.299Z,7.32
2022-08-28T11:08:29.471Z,9.32
2022-08-28T11:09:36.065Z,8.25
2022-08-28T11:10:38.698Z,7.85
2022-08-28T11:11:40.089Z,7.15
2022-08-28T11:12:43.750Z,8.93
2022-08-28T11:13:59.726Z,8.85
2022-08-28T11:15:38.040Z,6.53
2022-08-28T11:16:45.364Z,10.48
2022-08-28T11:17:47.765Z,7.05
2022-08-28T11:19:08.001Z,7.43
2022-08-28T11:20:22.805Z,8.38
2022-08-28T11:21:30.352Z,7.90
2022-08-28T11:22:55.277Z,8.60
2022-08-28T11:24:05.921Z,7.90
2022-08-28T11:25:41.497Z,6.75
2022-08-28T11:26:59.131Z,7.10
2022-08-28T11:28:19.080Z,8.20
2022-08-28T11:30:00.043Z,6.63
2022-08-28T11:31:01.482Z,7.60
2022-08-28T11:32:30.961Z,7.35
2022-08-28T11:33:47.012Z,7.95
2022-08-28T11:35:00.827Z,7.43
2022-08-28T11:36:04.144Z,10.88
2022-08-28T11:37:05.708Z,7.90
2022-08-28T11:38:08.506Z,8.60
2022-08-28T11:40:52.299Z,8.07
2022-08-28T11:42:11.357Z,8.00
2022-08-28T11:43:14.246Z,7.97
2022-08-28T11:44:24.895Z,7.07
2022-08-28T11:45:50.812Z,7.38
2022-08-28T11:46:55.501Z,7.82
2022-08-28T11:47:57.850Z,8.85
2022-08-28T11:49:01.671Z,9.52
2022-08-28T11:50:14.923Z,9.02
2022-08-28T11:51:34.776Z,12.07
2022-08-28T11:52:43.376Z,10.13
2022-08-28T11:53:51.984Z,8.40
2022-08-28T11:55:24.737Z,10.63
2022-08-28T11:57:05.418Z,7.22
2022-08-28T11:58:29.998Z,8.45
2022-08-28T11:59:53.348Z,8.65
2022-08-28T12:01:10.768Z,7.97
2022-08-28T12:02:40.661Z,9.02
2022-08-28T12:03:53.681Z,6.88
2022-08-28T12:04:55.635Z,9.10
2022-08-28T12:06:00.276Z,7.97
2022-08-28T12:07:13.995Z,8.05
2022-08-28T12:08:57.767Z,8.10
2022-08-28T12:10:04.253Z,8.27
2022-08-28T12:11:06.635Z,8.68
2022-08-28T12:12:11.124Z,6.22
2022-08-28T12:13:49.503Z,8.25
2022-08-28T12:15:08.617Z,9.55
2022-08-28T12:16:10.187Z,8.07
2022-08-28T12:17:14.777Z,8.73
2022-08-28T12:18:39.124Z,8.93
2022-08-28T12:19:55.421Z,6.15
2022-08-28T12:21:01.658Z,9.70
2022-08-28T12:22:14.076Z,12.02
2022-08-28T12:23:58.925Z,34.08
2022-08-28T12:25:04.501Z,8.18
2022-08-28T12:26:36.360Z,8.50
2022-08-28T12:27:38.727Z,7.13
2022-08-28T12:28:54.267Z,7.63
2022-08-28T12:29:58.676Z,8.38
2022-08-28T12:31:06.341Z,6.40
2022-08-28T12:32:45.572Z,7.63
2022-08-28T12:34:04.739Z,7.60
2022-08-28T12:35:17.152Z,6.57
2022-08-28T12:36:26.667Z,10.32
2022-08-28T12:37:51.597Z,9.52
2022-08-28T12:38:58.505Z,7.50
2022-08-28T12:40:15.358Z,8.90
2022-08-28T12:41:18.696Z,9.60
2022-08-28T12:42:29.905Z,7.60
2022-08-28T12:44:36.420Z,7.00
2022-08-28T12:45:42.426Z,7.63
2022-08-28T12:46:44.475Z,6.63
2022-08-28T12:47:47.709Z,7.65
2022-08-28T12:48:55.102Z,8.50
2022-08-28T12:49:57.042Z,7.63
2022-08-28T12:51:05.915Z,6.68
2022-08-28T12:53:16.267Z,7.75
2022-08-28T12:54:18.228Z,7.15
2022-08-28T12:55:24.323Z,10.35
2022-08-28T12:56:32.920Z,7.43
2022-08-28T12:57:34.921Z,6.90
2022-08-28T12:58:39.423Z,7.75
2022-08-28T12:59:49.907Z,7.82
2022-08-28T13:00:58.824Z,8.50
2022-08-28T13:02:10.263Z,8.75
2022-08-28T13:03:12.037Z,8.48
2022-08-28T13:04:33.736Z,6.72
2022-08-28T13:05:41.285Z,10.10
2022-08-28T13:06:42.996Z,6.93
2022-08-28T13:07:51.923Z,7.30
2022-08-28T13:10:01.108Z,8.02
2022-08-28T13:11:04.392Z,7.70
2022-08-28T13:12:07.427Z,7.88
2022-08-28T13:13:19.865Z,7.07
2022-08-28T13:14:43.315Z,6.45
2022-08-28T13:15:58.546Z,8.70
2022-08-28T13:17:00.967Z,6.15
2022-08-28T13:18:03.163Z,6.03
2022-08-28T13:19:04.648Z,8.02
2022-08-28T13:20:07.389Z,6.78
2022-08-28T13:21:14.711Z,6.82
2022-08-28T13:22:35.738Z,8.68
2022-08-28T13:23:37.482Z,9.13
2022-08-28T13:24:44.326Z,6.60
2022-08-28T13:25:46.065Z,8.85
2022-08-28T13:26:50.441Z,7.60
2022-08-28T13:28:00.521Z,6.88
2022-08-28T13:29:07.693Z,7.72
2022-08-28T13:30:19.985Z,7.28
2022-08-28T13:31:21.483Z,8.63
2022-08-28T13:32:23.848Z,8.88
2022-08-28T13:33:27.135Z,7.13
2022-08-28T13:34:31.423Z,6.07
2022-08-28T13:35:39.890Z,8.43
2022-08-28T13:36:45.325Z,8.07
2022-08-28T13:37:53.524Z,6.95
2022-08-28T13:38:55.169Z,7.57
2022-08-28T13:39:57.092Z,7.47
2022-08-28T13:41:02.777Z,7.53
2022-08-28T13:42:11.174Z,9.50
2022-08-28T13:43:15.495Z,10.23
2022-08-28T13:44:45.836Z,7.05
2022-08-28T13:45:48.845Z,6.82
2022-08-28T13:46:50.334Z,6.75
2022-08-28T13:47:52.864Z,6.13
2022-08-28T13:48:54.310Z,6.65
2022-08-28T13:49:55.741Z,6.53
2022-08-28T13:51:03.534Z,7.70
2022-08-28T13:52:07.674Z,6.22
2022-08-28T13:53:11.652Z,6.43
2022-08-28T13:54:14.270Z,7.25
2022-08-28T13:55:15.724Z,8.38
2022-08-28T13:56:17.671Z,5.93
2022-08-28T13:57:19.251Z,6.78
2022-08-28T13:58:20.776Z,7.10
2022-08-28T13:59:23.415Z,7.40
2022-08-28T14:00:24.898Z,6.40
2022-08-28T14:01:46.623Z,6.55
2022-08-28T14:03:07.119Z,6.43
2022-08-28T14:04:08.599Z,7.43
2022-08-28T14:05:10.210Z,6.07
2022-08-28T14:06:14.812Z,6.22
2022-08-28T14:07:16.954Z,5.50
2022-08-28T14:08:18.541Z,8.88
2022-08-28T14:09:20.390Z,7.82
2022-08-28T14:10:22.847Z,8.25
2022-08-28T14:11:26.319Z,6.75
2022-08-28T14:12:33.373Z,7.40
2022-08-28T14:13:36.247Z,6.45
2022-08-28T14:14:40.022Z,7.95
2022-08-28T14:15:41.577Z,8.35
2022-08-28T14:16:45.462Z,8.88
2022-08-28T14:17:47.198Z,8.27
2022-08-28T14:18:49.185Z,7.90
2022-08-28T14:19:50.818Z,7.60
2022-08-28T14:20:52.689Z,6.88
2022-08-28T14:21:54.216Z,8.48
2022-08-28T14:22:55.786Z,6.68
2022-08-28T14:23:59.087Z,7.18
2022-08-28T14:25:00.778Z,6.78
2022-08-28T14:26:05.730Z,7.35
2022-08-28T14:27:07.328Z,6.63
2022-08-28T14:28:09.075Z,6.30
2022-08-28T14:29:12.885Z,6.53
2022-08-28T14:30:14.813Z,7.13
2022-08-28T14:31:16.435Z,7.45
2022-08-28T14:32:18.458Z,6.65
2022-08-28T14:33:20.712Z,7.65
2022-08-28T14:34:23.503Z,9.43
2022-08-28T14:35:25.223Z,6.82
2022-08-28T14:36:28.797Z,7.60
2022-08-28T14:37:30.653Z,8.45
2022-08-28T14:38:32.181Z,6.75
2022-08-28T14:39:33.668Z,7.50
2022-08-28T14:40:42.810Z,6.57